createdAt,value
2023-05-04T00:02:06.568Z,57413.44
2023-05-04T00:04:33.274Z,57375.84
2023-05-04T00:07:00.044Z,57409.25
2023-05-04T00:09:27.133Z,57369.59
2023-05-04T00:11:53.883Z,57384.19
2023-05-04T00:14:20.477Z,57357.06
2023-05-04T00:16:47.285Z,57369.59
2023-05-04T00:19:13.963Z,57394.63
2023-05-04T00:21:40.533Z,57419.69
2023-05-04T00:24:07.465Z,57398.81
2023-05-04T00:26:34.237Z,57361.25
2023-05-04T00:29:01.263Z,57359.16
2023-05-04T00:31:28.832Z,57409.25
2023-05-04T00:33:55.595Z,57354.97
2023-05-04T00:36:22.188Z,57357.06
2023-05-04T00:38:54.115Z,57396.72
2023-05-04T00:41:21.445Z,57394.63
2023-05-04T00:43:48.667Z,57377.94
2023-05-04T00:46:15.675Z,57365.41
2023-05-04T00:48:43.270Z,57400.91
2023-05-04T00:51:11.950Z,57380.03
2023-05-04T00:53:39.381Z,57363.31
2023-05-04T00:56:07.626Z,57375.84
2023-05-04T00:58:35.357Z,57338.28
2023-05-04T01:01:03.612Z,57380.03
2023-05-04T01:03:31.432Z,57392.56
2023-05-04T01:06:13.099Z,57344.53
2023-05-04T01:08:45.778Z,57403.00
2023-05-04T01:11:21.316Z,57373.75
2023-05-04T01:13:51.427Z,57375.84
2023-05-04T01:16:18.306Z,57380.03
2023-05-04T01:18:44.884Z,57394.63
2023-05-04T01:21:11.453Z,57394.63
2023-05-04T01:23:38.050Z,57334.09
2023-05-04T01:26:21.238Z,57380.03
2023-05-04T01:29:12.560Z,57403.00
2023-05-04T01:31:39.916Z,57342.47
2023-05-04T01:34:08.852Z,57384.19
2023-05-04T01:36:36.103Z,57400.91
2023-05-04T01:39:03.766Z,57361.25
2023-05-04T01:41:31.161Z,57384.19
2023-05-04T01:43:58.569Z,57354.97
2023-05-04T01:46:25.273Z,57377.94
2023-05-04T01:48:51.924Z,57380.03
2023-05-04T01:51:18.755Z,57392.56
2023-05-04T01:53:45.431Z,57332.03
2023-05-04T01:56:12.064Z,57384.19
2023-05-04T01:58:38.697Z,57407.16
2023-05-04T02:01:05.474Z,57409.25
2023-05-04T02:03:32.372Z,57363.31
2023-05-04T02:05:59.001Z,57392.56
2023-05-04T02:08:26.707Z,57392.56
2023-05-04T02:10:53.320Z,57407.16
2023-05-04T02:13:20.092Z,57354.97
2023-05-04T02:15:46.777Z,57398.81
2023-05-04T02:18:13.497Z,57380.03
2023-05-04T02:20:40.178Z,57336.19
2023-05-04T02:23:07.376Z,57396.72
2023-05-04T02:25:34.486Z,57367.50
2023-05-04T02:28:01.500Z,57396.72
2023-05-04T02:30:28.027Z,57382.13
2023-05-04T02:32:54.681Z,57405.06
2023-05-04T02:35:21.310Z,57373.75
2023-05-04T02:37:47.873Z,57388.38
2023-05-04T02:40:14.717Z,57382.13
2023-05-04T02:42:41.820Z,57367.50
2023-05-04T02:45:08.957Z,57390.47
2023-05-04T02:47:35.714Z,57382.13
2023-05-04T02:50:02.455Z,57386.28
2023-05-04T02:52:29.259Z,57363.31
2023-05-04T02:54:55.882Z,57361.25
2023-05-04T02:57:22.401Z,57348.72
2023-05-04T02:59:48.969Z,57373.75
2023-05-04T03:02:15.739Z,57382.13
2023-05-04T03:04:42.473Z,57354.97
2023-05-04T03:07:09.645Z,57409.25
2023-05-04T03:09:36.284Z,57405.06
2023-05-04T03:12:03.795Z,57415.50
2023-05-04T03:14:31.535Z,57375.84
2023-05-04T03:16:58.773Z,57371.69
2023-05-04T03:19:26.280Z,57396.72
2023-05-04T03:21:53.220Z,57425.94
2023-05-04T03:24:19.904Z,57359.16
2023-05-04T03:26:47.413Z,57442.66
2023-05-04T03:29:14.627Z,57430.13
2023-05-04T03:31:41.345Z,57388.38
2023-05-04T03:34:09.788Z,57363.31
2023-05-04T03:36:36.371Z,57398.81
2023-05-04T03:39:03.581Z,57394.63
2023-05-04T03:41:30.205Z,57336.19
2023-05-04T03:43:56.861Z,57369.59
2023-05-04T03:46:23.506Z,57403.00
2023-05-04T03:48:50.244Z,57403.00
2023-05-04T03:51:16.990Z,57409.25
2023-05-04T03:53:44.929Z,57407.16
2023-05-04T03:56:11.858Z,57407.16
2023-05-04T03:58:38.549Z,57390.47
2023-05-04T04:01:05.426Z,57359.16
2023-05-04T04:03:32.447Z,57421.78
2023-05-04T04:05:59.377Z,57388.38
2023-05-04T04:08:26.228Z,57411.34
2023-05-04T04:10:52.761Z,57421.78
2023-05-04T04:13:19.579Z,57407.16
2023-05-04T04:15:46.810Z,57390.47
2023-05-04T04:18:13.549Z,57403.00
2023-05-04T04:20:40.338Z,57359.16
2023-05-04T04:23:07.313Z,57396.72
2023-05-04T04:25:34.916Z,57417.59
2023-05-04T04:28:02.107Z,57405.06
2023-05-04T04:30:29.052Z,57440.56
2023-05-04T04:32:57.344Z,57377.94
2023-05-04T04:35:24.024Z,57419.69
2023-05-04T04:37:51.313Z,57392.56
2023-05-04T04:40:18.258Z,57398.81
2023-05-04T04:42:45.454Z,57365.41
2023-05-04T04:45:12.767Z,57386.28
2023-05-04T04:47:40.398Z,57407.16
2023-05-04T04:50:07.997Z,57386.28
2023-05-04T04:52:34.867Z,57396.72
2023-05-04T04:55:01.580Z,57398.81
2023-05-04T04:57:31.213Z,57411.34
2023-05-04T04:59:58.496Z,57400.91
2023-05-04T05:02:25.214Z,57413.44
2023-05-04T05:04:51.844Z,57434.28
2023-05-04T05:07:18.507Z,57455.16
2023-05-04T05:09:45.231Z,57373.75
2023-05-04T05:12:11.841Z,57403.00
2023-05-04T05:14:38.560Z,57428.03
2023-05-04T05:17:05.384Z,57407.16
2023-05-04T05:19:37.170Z,57375.84
2023-05-04T05:22:04.895Z,57413.44
2023-05-04T05:24:31.908Z,57382.13
2023-05-04T05:26:58.579Z,57390.47
2023-05-04T05:29:31.751Z,57382.13
2023-05-04T05:31:58.477Z,57386.28
2023-05-04T05:34:25.157Z,57400.91
2023-05-04T05:36:52.402Z,57390.47
2023-05-04T05:39:19.130Z,57413.44
2023-05-04T05:41:45.673Z,57421.78
2023-05-04T05:44:13.158Z,57390.47
2023-05-04T05:46:40.152Z,57407.16
2023-05-04T05:49:07.599Z,57421.78
2023-05-04T05:51:34.471Z,57421.78
2023-05-04T05:54:01.293Z,57413.44
2023-05-04T05:56:28.126Z,57413.44
2023-05-04T05:58:54.807Z,57411.34
2023-05-04T06:01:21.499Z,57377.94
2023-05-04T06:03:48.147Z,57384.19
2023-05-04T06:06:15.536Z,57413.44
2023-05-04T06:08:42.302Z,57367.50
2023-05-04T06:11:08.902Z,57405.06
2023-05-04T06:13:35.601Z,57363.31
2023-05-04T06:16:02.298Z,57350.81
2023-05-04T06:18:28.881Z,57375.84
2023-05-04T06:20:59.720Z,57396.72
2023-05-04T06:23:29.124Z,57394.63
2023-05-04T06:25:55.814Z,57455.16
2023-05-04T06:28:23.112Z,57405.06
2023-05-04T06:30:49.839Z,57380.03
2023-05-04T06:33:16.589Z,57382.13
2023-05-04T06:35:43.557Z,57382.13
2023-05-04T06:40:54.128Z,57380.03
2023-05-04T06:43:20.897Z,57363.31
2023-05-04T06:45:47.531Z,57398.81
2023-05-04T06:48:14.201Z,57405.06
2023-05-04T06:50:41.231Z,57392.56
2023-05-04T06:53:09.794Z,57415.50
2023-05-04T06:55:37.236Z,57361.25
2023-05-04T06:58:04.761Z,57446.81
2023-05-04T07:00:32.274Z,57400.91
2023-05-04T07:02:58.976Z,57415.50
2023-05-04T07:05:26.213Z,57384.19
2023-05-04T07:07:53.239Z,57400.91
2023-05-04T07:10:19.816Z,57361.25
2023-05-04T07:12:47.039Z,57411.34
2023-05-04T07:15:13.950Z,57442.66
2023-05-04T07:17:41.266Z,57419.69
2023-05-04T07:20:08.648Z,57403.00
2023-05-04T07:22:35.479Z,57371.69
2023-05-04T07:25:02.303Z,57415.50
2023-05-04T07:27:29.144Z,57400.91
2023-05-04T07:29:56.014Z,57361.25
2023-05-04T07:32:22.931Z,57407.16
2023-05-04T07:34:49.661Z,57421.78
2023-05-04T07:37:16.618Z,57442.66
2023-05-04T07:39:43.252Z,57446.81
2023-05-04T07:42:12.121Z,57403.00
2023-05-04T07:44:38.973Z,57413.44
2023-05-04T07:47:05.733Z,57419.69
2023-05-04T07:49:32.590Z,57367.50
2023-05-04T07:51:59.319Z,57382.13
2023-05-04T07:54:26.613Z,57377.94
2023-05-04T07:56:53.400Z,57425.94
2023-05-04T07:59:20.622Z,57396.72
2023-05-04T08:01:47.621Z,57411.34
2023-05-04T08:04:14.318Z,57388.38
2023-05-04T08:06:41.822Z,57400.91
2023-05-04T08:09:09.025Z,57392.56
2023-05-04T08:11:35.774Z,57394.63
2023-05-04T08:14:02.901Z,57438.47
2023-05-04T08:16:29.680Z,57413.44
2023-05-04T08:18:57.264Z,57405.06
2023-05-04T08:21:24.391Z,57413.44
2023-05-04T08:23:51.099Z,57413.44
2023-05-04T08:26:17.831Z,57423.88
2023-05-04T08:28:46.137Z,57396.72
2023-05-04T08:31:13.637Z,57446.81
2023-05-04T08:33:40.712Z,57400.91
2023-05-04T08:36:09.562Z,57384.19
2023-05-04T08:38:36.217Z,57388.38
2023-05-04T08:41:06.963Z,57421.78
2023-05-04T08:43:37.002Z,57411.34
2023-05-04T08:46:05.080Z,57405.06
2023-05-04T08:48:33.964Z,57407.16
2023-05-04T08:51:02.629Z,57380.03
2023-05-04T08:53:31.486Z,57377.94
2023-05-04T08:56:04.152Z,57415.50
2023-05-04T08:58:31.921Z,57407.16
2023-05-04T09:01:01.377Z,57396.72
2023-05-04T09:03:30.350Z,57411.34
2023-05-04T09:05:57.994Z,57417.59
2023-05-04T09:08:24.771Z,57409.25
2023-05-04T09:10:51.811Z,57417.59
2023-05-04T09:13:18.498Z,57400.91
2023-05-04T09:15:55.981Z,57392.56
2023-05-04T09:18:23.371Z,57384.19
2023-05-04T09:20:50.302Z,57428.03
2023-05-04T09:23:18.315Z,57409.25
2023-05-04T09:25:54.141Z,57388.38
2023-05-04T09:28:33.383Z,57392.56
2023-05-04T09:31:01.523Z,57384.19
2023-05-04T09:33:28.581Z,57405.06
2023-05-04T09:35:55.726Z,57423.88
2023-05-04T09:38:31.721Z,57386.28
2023-05-04T09:40:58.402Z,57421.78
2023-05-04T09:43:25.256Z,57417.59
2023-05-04T09:45:51.914Z,57346.63
2023-05-04T09:48:20.574Z,57400.91
2023-05-04T09:50:55.542Z,57386.28
2023-05-04T09:53:26.909Z,57432.22
2023-05-04T09:56:04.385Z,57371.69
2023-05-04T09:58:34.518Z,57390.47
2023-05-04T10:01:01.800Z,57390.47
2023-05-04T10:03:29.332Z,57434.28
2023-05-04T10:05:59.428Z,57409.25
2023-05-04T10:08:27.662Z,57423.88
2023-05-04T10:10:55.161Z,57386.28
2023-05-04T10:13:21.832Z,57428.03
2023-05-04T10:16:14.435Z,57386.28
2023-05-04T10:19:26.959Z,57425.94
2023-05-04T10:22:12.462Z,57417.59
2023-05-04T10:25:05.286Z,57413.44
2023-05-04T10:28:04.049Z,57390.47
2023-05-04T10:30:31.104Z,57386.28
2023-05-04T10:32:58.916Z,57371.69
2023-05-04T10:35:26.134Z,57405.06
2023-05-04T10:37:54.672Z,57405.06
2023-05-04T10:40:40.088Z,57409.25
2023-05-04T10:43:08.564Z,57386.28
2023-05-04T10:45:40.308Z,57461.44
2023-05-04T10:48:08.589Z,57384.19
2023-05-04T10:50:43.124Z,57388.38
2023-05-04T10:53:09.972Z,57365.41
2023-05-04T10:55:45.463Z,57405.06
2023-05-04T10:58:16.541Z,57382.13
2023-05-04T11:00:45.898Z,57363.31
2023-05-04T11:03:14.005Z,57423.88
2023-05-04T11:05:42.173Z,57369.59
2023-05-04T11:08:19.536Z,57432.22
2023-05-04T11:10:48.155Z,57446.81
2023-05-04T11:13:16.416Z,57415.50
2023-05-04T11:15:50.436Z,57373.75
2023-05-04T11:18:34.334Z,57344.53
2023-05-04T11:21:01.612Z,57398.81
2023-05-04T11:23:28.391Z,57417.59
2023-05-04T11:25:55.704Z,57392.56
2023-05-04T11:28:33.613Z,57396.72
2023-05-04T11:31:00.563Z,57382.13
2023-05-04T11:33:28.492Z,57421.78
2023-05-04T11:36:01.655Z,57409.25
2023-05-04T11:38:28.391Z,57400.91
2023-05-04T11:40:55.279Z,57407.16
2023-05-04T11:43:22.430Z,57405.06
2023-05-04T11:45:50.200Z,57400.91
2023-05-04T11:48:18.784Z,57388.38
2023-05-04T11:50:46.964Z,57371.69
2023-05-04T11:53:14.027Z,57405.06
2023-05-04T11:55:42.061Z,57409.25
2023-05-04T11:58:11.180Z,57451.00
2023-05-04T12:00:43.205Z,57425.94
2023-05-04T12:03:15.214Z,57407.16
2023-05-04T12:05:50.740Z,57405.06
2023-05-04T12:08:27.953Z,57375.84
2023-05-04T12:11:13.069Z,57390.47
2023-05-04T12:13:41.182Z,57405.06
2023-05-04T12:16:21.190Z,57394.63
2023-05-04T12:18:48.535Z,57409.25
2023-05-04T12:21:18.652Z,57413.44
2023-05-04T12:23:47.100Z,57432.22
2023-05-04T12:26:15.031Z,57415.50
2023-05-04T12:28:43.455Z,57403.00
2023-05-04T12:31:10.377Z,57419.69
2023-05-04T12:33:37.133Z,57398.81
2023-05-04T12:36:07.660Z,57411.34
2023-05-04T12:38:34.907Z,57409.25
2023-05-04T12:41:04.481Z,57390.47
2023-05-04T12:43:33.008Z,57421.78
2023-05-04T12:46:00.327Z,57405.06
2023-05-04T12:48:29.130Z,57400.91
2023-05-04T12:50:56.124Z,57413.44
2023-05-04T12:53:25.792Z,57413.44
2023-05-04T12:55:52.555Z,57386.28
2023-05-04T12:58:19.476Z,57457.25
2023-05-04T13:00:46.572Z,57409.25
2023-05-04T13:03:13.541Z,57390.47
2023-05-04T13:05:40.418Z,57428.03
2023-05-04T13:08:07.191Z,57432.22
2023-05-04T13:10:33.887Z,57440.56
2023-05-04T13:13:01.004Z,57419.69
2023-05-04T13:15:28.173Z,57455.16
2023-05-04T13:17:55.142Z,57398.81
2023-05-04T13:20:22.739Z,57396.72
2023-05-04T13:22:50.596Z,57413.44
2023-05-04T13:25:17.218Z,57425.94
2023-05-04T13:27:44.370Z,57405.06
2023-05-04T13:30:12.079Z,57413.44
2023-05-04T13:32:38.806Z,57403.00
2023-05-04T13:35:06.161Z,57446.81
2023-05-04T13:37:33.649Z,57428.03
2023-05-04T13:40:01.759Z,57438.47
2023-05-04T13:42:28.479Z,57409.25
2023-05-04T13:44:55.211Z,57451.00
2023-05-04T13:47:23.642Z,57440.56
2023-05-04T13:49:53.189Z,57415.50
2023-05-04T13:52:19.822Z,57446.81
2023-05-04T13:54:46.442Z,57423.88
2023-05-04T13:57:13.223Z,57425.94
2023-05-04T13:59:39.781Z,57442.66
2023-05-04T14:02:06.356Z,57432.22
2023-05-04T14:04:33.039Z,57432.22
2023-05-04T14:07:00.031Z,57405.06
2023-05-04T14:09:26.882Z,57396.72
2023-05-04T14:11:54.018Z,57405.06
2023-05-04T14:14:22.173Z,57394.63
2023-05-04T14:16:48.930Z,57396.72
2023-05-04T14:19:16.047Z,57411.34
2023-05-04T14:21:42.709Z,57363.31
2023-05-04T14:24:09.528Z,57459.34
2023-05-04T14:26:36.644Z,57442.66
2023-05-04T14:29:03.704Z,57463.53
2023-05-04T14:31:30.579Z,57425.94
2023-05-04T14:33:57.335Z,57425.94
2023-05-04T14:36:23.946Z,57403.00
2023-05-04T14:38:50.783Z,57442.66
2023-05-04T14:41:17.609Z,57442.66
2023-05-04T14:43:44.553Z,57390.47
2023-05-04T14:46:12.957Z,57467.69
2023-05-04T14:48:39.783Z,57403.00
2023-05-04T14:51:06.666Z,57448.91
2023-05-04T14:53:36.818Z,57417.59
2023-05-04T14:56:04.060Z,57442.66
2023-05-04T14:58:30.718Z,57411.34
2023-05-04T15:00:57.576Z,57419.69
2023-05-04T15:03:26.197Z,57438.47
2023-05-04T15:05:53.662Z,57413.44
2023-05-04T15:08:20.488Z,57432.22
2023-05-04T15:10:47.120Z,57465.59
2023-05-04T15:13:16.103Z,57469.78
2023-05-04T15:15:43.008Z,57438.47
2023-05-04T15:18:10.089Z,57432.22
2023-05-04T15:20:38.441Z,57430.13
2023-05-04T15:23:10.766Z,57440.56
2023-05-04T15:25:41.335Z,57421.78
2023-05-04T15:28:11.122Z,57403.00
2023-05-04T15:30:42.381Z,57388.38
2023-05-04T15:33:09.706Z,57421.78
2023-05-04T15:35:37.119Z,57438.47
2023-05-04T15:38:03.913Z,57438.47
2023-05-04T15:40:31.417Z,57444.72
2023-05-04T15:42:58.214Z,57428.03
2023-05-04T15:45:24.983Z,57459.34
2023-05-04T15:47:53.680Z,57394.63
2023-05-04T15:50:21.014Z,57465.59
2023-05-04T15:52:47.715Z,57453.09
2023-05-04T15:55:25.524Z,57448.91
2023-05-04T15:57:53.232Z,57423.88
2023-05-04T16:00:21.133Z,57451.00
2023-05-04T16:02:48.045Z,57423.88
2023-05-04T16:05:14.933Z,57423.88
2023-05-04T16:07:41.625Z,57455.16
2023-05-04T16:10:09.458Z,57430.13
2023-05-04T16:12:36.504Z,57451.00
2023-05-04T16:15:03.434Z,57442.66
2023-05-04T16:17:34.964Z,57446.81
2023-05-04T16:20:02.801Z,57448.91
2023-05-04T16:22:30.060Z,57425.94
2023-05-04T16:24:56.767Z,57442.66
2023-05-04T16:27:29.874Z,57421.78
2023-05-04T16:29:56.474Z,57436.38
2023-05-04T16:32:23.550Z,57453.09
2023-05-04T16:34:50.226Z,57444.72
2023-05-04T16:37:18.531Z,57430.13
2023-05-04T16:39:45.635Z,57455.16
2023-05-04T16:42:12.934Z,57423.88
2023-05-04T16:44:39.618Z,57451.00
2023-05-04T16:47:06.958Z,57459.34
2023-05-04T16:49:33.990Z,57438.47
2023-05-04T16:52:02.024Z,57415.50
2023-05-04T16:54:28.601Z,57453.09
2023-05-04T16:56:55.473Z,57367.50
2023-05-04T16:59:22.163Z,57457.25
2023-05-04T17:01:48.919Z,57421.78
2023-05-04T17:04:15.927Z,57430.13
2023-05-04T17:06:42.858Z,57413.44
2023-05-04T17:09:10.009Z,57448.91
2023-05-04T17:11:36.778Z,57451.00
2023-05-04T17:14:03.765Z,57465.59
2023-05-04T17:16:30.414Z,57492.75
2023-05-04T17:18:57.153Z,57448.91
2023-05-04T17:21:24.161Z,57467.69
2023-05-04T17:23:50.865Z,57419.69
2023-05-04T17:26:17.573Z,57442.66
2023-05-04T17:28:44.352Z,57428.03
2023-05-04T17:31:12.628Z,57423.88
2023-05-04T17:33:39.416Z,57409.25
2023-05-04T17:36:07.820Z,57417.59
2023-05-04T17:38:34.616Z,57457.25
2023-05-04T17:41:01.365Z,57463.53
2023-05-04T17:43:28.164Z,57473.97
2023-05-04T17:45:55.965Z,57436.38
2023-05-04T17:48:24.291Z,57473.97
2023-05-04T17:50:51.651Z,57428.03
2023-05-04T17:53:18.701Z,57455.16
2023-05-04T17:55:45.449Z,57463.53
2023-05-04T17:58:11.988Z,57421.78
2023-05-04T18:00:38.615Z,57448.91
2023-05-04T18:03:05.374Z,57409.25
2023-05-04T18:05:32.181Z,57473.97
2023-05-04T18:07:59.215Z,57430.13
2023-05-04T18:10:26.062Z,57413.44
2023-05-04T18:12:52.840Z,57413.44
2023-05-04T18:15:19.719Z,57413.44
2023-05-04T18:17:46.524Z,57440.56
2023-05-04T18:20:13.405Z,57442.66
2023-05-04T18:22:40.114Z,57444.72
2023-05-04T18:25:07.406Z,57459.34
2023-05-04T18:27:35.315Z,57465.59
2023-05-04T18:30:03.494Z,57432.22
2023-05-04T18:32:30.267Z,57448.91
2023-05-04T18:35:01.724Z,57430.13
2023-05-04T18:37:32.030Z,57469.78
2023-05-04T18:39:58.955Z,57465.59
2023-05-04T18:42:25.864Z,57480.22
2023-05-04T18:44:53.520Z,57417.59
2023-05-04T18:47:20.399Z,57442.66
2023-05-04T18:49:54.919Z,57459.34
2023-05-04T18:52:22.083Z,57442.66
2023-05-04T18:54:49.775Z,57469.78
2023-05-04T18:57:17.111Z,57423.88
2023-05-04T18:59:43.971Z,57480.22
2023-05-04T19:02:11.160Z,57430.13
2023-05-04T19:04:37.942Z,57480.22
2023-05-04T19:07:04.689Z,57448.91
2023-05-04T19:09:32.119Z,57442.66
2023-05-04T19:11:58.987Z,57467.69
2023-05-04T19:14:29.999Z,57451.00
2023-05-04T19:16:57.964Z,57442.66
2023-05-04T19:19:26.137Z,57467.69
2023-05-04T19:21:52.755Z,57490.66
2023-05-04T19:24:19.762Z,57442.66
2023-05-04T19:26:46.686Z,57413.44
2023-05-04T19:29:13.742Z,57488.56
2023-05-04T19:31:40.661Z,57455.16
2023-05-04T19:34:07.441Z,57432.22
2023-05-04T19:36:33.981Z,57409.25
2023-05-04T19:39:00.805Z,57428.03
2023-05-04T19:41:27.562Z,57480.22
2023-05-04T19:43:54.126Z,57465.59
2023-05-04T19:46:21.802Z,57471.88
2023-05-04T19:48:48.527Z,57451.00
2023-05-04T19:51:15.729Z,57438.47
2023-05-04T19:53:42.295Z,57455.16
2023-05-04T19:56:08.978Z,57451.00
2023-05-04T19:58:36.332Z,57501.09
2023-05-04T20:01:03.007Z,57457.25
2023-05-04T20:03:29.662Z,57451.00
2023-05-04T20:05:56.313Z,57455.16
2023-05-04T20:08:23.021Z,57451.00
2023-05-04T20:10:49.654Z,57480.22
2023-05-04T20:13:16.611Z,57430.13
2023-05-04T20:15:43.238Z,57465.59
2023-05-04T20:18:09.875Z,57453.09
2023-05-04T20:20:36.548Z,57455.16
2023-05-04T20:23:03.338Z,57457.25
2023-05-04T20:25:30.564Z,57423.88
2023-05-04T20:27:57.618Z,57471.88
2023-05-04T20:30:28.164Z,57448.91
2023-05-04T20:32:55.327Z,57453.09
2023-05-04T20:35:22.000Z,57455.16
2023-05-04T20:37:49.130Z,57461.44
2023-05-04T20:40:16.905Z,57446.81
2023-05-04T20:42:44.204Z,57436.38
2023-05-04T20:45:11.062Z,57467.69
2023-05-04T20:47:37.812Z,57478.13
2023-05-04T20:50:06.180Z,57476.03
2023-05-04T20:52:33.323Z,57476.03
2023-05-04T20:55:00.251Z,57471.88
2023-05-04T20:57:27.141Z,57467.69
2023-05-04T20:59:54.176Z,57448.91
2023-05-04T21:02:20.847Z,57432.22
2023-05-04T21:04:48.568Z,57461.44
2023-05-04T21:07:15.310Z,57459.34
2023-05-04T21:09:41.970Z,57494.81
2023-05-04T21:12:08.545Z,57471.88
2023-05-04T21:14:35.173Z,57451.00
2023-05-04T21:17:02.137Z,57430.13
2023-05-04T21:19:28.712Z,57417.59
2023-05-04T21:21:55.749Z,57465.59
2023-05-04T21:24:22.378Z,57478.13
2023-05-04T21:26:49.428Z,57471.88
2023-05-04T21:29:16.108Z,57428.03
2023-05-04T21:31:42.806Z,57455.16
2023-05-04T21:34:09.417Z,57480.22
2023-05-04T21:36:36.069Z,57473.97
2023-05-04T21:39:02.759Z,57463.53
2023-05-04T21:41:29.798Z,57442.66
2023-05-04T21:43:56.429Z,57486.47
2023-05-04T21:46:23.244Z,57448.91
2023-05-04T21:48:51.701Z,57455.16
2023-05-04T21:51:20.689Z,57463.53
2023-05-04T21:53:48.024Z,57480.22
2023-05-04T21:56:14.811Z,57476.03
2023-05-04T21:58:42.172Z,57451.00
2023-05-04T22:01:09.559Z,57446.81
2023-05-04T22:03:36.742Z,57457.25
2023-05-04T22:06:03.894Z,57455.16
2023-05-04T22:08:30.562Z,57467.69
2023-05-04T22:10:58.623Z,57463.53
2023-05-04T22:13:26.144Z,57490.66
2023-05-04T22:15:53.754Z,57417.59
2023-05-04T22:18:21.267Z,57428.03
2023-05-04T22:20:48.290Z,57438.47
2023-05-04T22:23:15.082Z,57478.13
2023-05-04T22:25:41.768Z,57467.69
2023-05-04T22:28:08.873Z,57455.16
2023-05-04T22:30:35.775Z,57492.75
2023-05-04T22:33:02.737Z,57405.06
2023-05-04T22:35:31.435Z,57446.81
2023-05-04T22:37:59.210Z,57425.94
2023-05-04T22:40:25.913Z,57444.72
2023-05-04T22:42:52.547Z,57446.81
2023-05-04T22:45:19.329Z,57448.91
2023-05-04T22:47:48.883Z,57440.56
2023-05-04T22:50:15.656Z,57459.34
2023-05-04T22:52:42.535Z,57482.31
2023-05-04T22:55:09.592Z,57473.97
2023-05-04T22:57:36.849Z,57490.66
2023-05-04T23:00:08.363Z,57436.38
2023-05-04T23:02:36.244Z,57480.22
2023-05-04T23:05:03.924Z,57457.25
2023-05-04T23:07:30.706Z,57448.91
2023-05-04T23:09:57.485Z,57476.03
2023-05-04T23:12:25.493Z,57451.00
2023-05-04T23:14:52.570Z,57496.91
2023-05-04T23:17:19.644Z,57444.72
2023-05-04T23:19:46.374Z,57461.44
2023-05-04T23:22:13.559Z,57457.25
2023-05-04T23:24:40.296Z,57465.59
2023-05-04T23:27:07.415Z,57417.59
2023-05-04T23:29:34.088Z,57446.81
2023-05-04T23:32:00.833Z,57455.16
2023-05-04T23:34:27.446Z,57480.22
2023-05-04T23:36:54.647Z,57461.44
2023-05-04T23:39:21.606Z,57453.09
2023-05-04T23:41:48.391Z,57478.13
2023-05-04T23:44:15.016Z,57465.59
2023-05-04T23:46:41.740Z,57432.22
2023-05-04T23:49:08.388Z,57482.31
2023-05-04T23:51:34.972Z,57478.13
2023-05-04T23:54:01.632Z,57428.03
2023-05-04T23:56:28.677Z,57425.94
2023-05-04T23:58:55.331Z,57428.03
